createdAt,value
2023-05-22T00:01:19.358Z,90.30
2023-05-22T00:03:46.877Z,90.20
2023-05-22T00:06:14.963Z,90.20
2023-05-22T00:08:42.066Z,90.30
2023-05-22T00:11:09.179Z,90.20
2023-05-22T00:13:36.345Z,90.20
2023-05-22T00:16:03.499Z,90.20
2023-05-22T00:18:30.616Z,90.40
2023-05-22T00:20:58.016Z,90.50
2023-05-22T00:23:27.760Z,90.50
2023-05-22T00:25:54.921Z,90.40
2023-05-22T00:28:22.050Z,90.30
2023-05-22T00:30:49.161Z,90.20
2023-05-22T00:33:16.364Z,90.20
2023-05-22T00:35:43.646Z,90.00
2023-05-22T00:38:32.126Z,89.70
2023-05-22T00:41:00.755Z,89.80
2023-05-22T00:43:28.207Z,89.60
2023-05-22T00:45:55.773Z,89.60
2023-05-22T00:48:23.793Z,89.70
2023-05-22T00:50:52.117Z,89.40
2023-05-22T00:53:24.111Z,89.10
2023-05-22T00:55:53.469Z,89.30
2023-05-22T00:58:21.713Z,88.90
2023-05-22T01:00:49.230Z,88.70
2023-05-22T01:03:17.551Z,88.70
2023-05-22T01:05:45.254Z,88.70
2023-05-22T01:08:12.435Z,88.60
2023-05-22T01:10:40.925Z,88.70
2023-05-22T01:13:38.001Z,88.60
2023-05-22T01:16:29.684Z,88.40
2023-05-22T01:19:17.949Z,88.20
2023-05-22T01:22:05.449Z,88.00
2023-05-22T01:24:56.946Z,87.90
2023-05-22T01:27:45.660Z,87.90
2023-05-22T01:30:46.890Z,88.00
2023-05-22T01:33:18.933Z,88.00
2023-05-22T01:35:51.409Z,87.90
2023-05-22T01:38:19.130Z,87.90
2023-05-22T01:40:47.672Z,88.00
2023-05-22T01:43:16.142Z,88.00
2023-05-22T01:45:43.313Z,87.70
2023-05-22T01:48:12.335Z,87.50
2023-05-22T01:50:40.256Z,87.60
2023-05-22T01:53:20.040Z,87.60
2023-05-22T01:56:00.835Z,87.60
2023-05-22T01:59:12.784Z,88.50
2023-05-22T02:01:41.367Z,88.80
2023-05-22T02:04:09.972Z,89.10
2023-05-22T02:06:38.625Z,89.10
2023-05-22T02:09:07.080Z,89.20
2023-05-22T02:11:35.296Z,89.20
2023-05-22T02:14:02.841Z,89.10
2023-05-22T02:16:30.363Z,89.20
2023-05-22T02:19:05.885Z,89.10
2023-05-22T02:21:35.148Z,89.00
2023-05-22T02:24:02.976Z,89.10
2023-05-22T02:26:30.136Z,88.50
2023-05-22T02:28:57.362Z,88.40
2023-05-22T02:31:24.674Z,88.30
2023-05-22T02:33:51.942Z,88.50
2023-05-22T02:36:19.176Z,88.50
2023-05-22T02:38:46.302Z,88.50
2023-05-22T02:41:13.495Z,88.30
2023-05-22T02:43:40.829Z,88.00
2023-05-22T02:46:08.008Z,88.10
2023-05-22T02:48:35.308Z,87.90
2023-05-22T02:51:02.404Z,88.20
2023-05-22T02:53:29.610Z,88.60
2023-05-22T02:55:58.744Z,88.90
2023-05-22T02:58:26.065Z,88.80
2023-05-22T03:00:54.254Z,88.50
2023-05-22T03:03:21.425Z,88.60
2023-05-22T03:05:49.980Z,88.40
2023-05-22T03:08:18.072Z,88.20
2023-05-22T03:10:45.350Z,88.10
2023-05-22T03:13:12.480Z,87.90
2023-05-22T03:15:39.589Z,87.80
2023-05-22T03:18:06.792Z,87.60
2023-05-22T03:20:33.933Z,87.50
2023-05-22T03:23:01.099Z,87.50
2023-05-22T03:25:28.262Z,87.30
2023-05-22T03:27:55.410Z,87.60
2023-05-22T03:30:22.597Z,87.40
2023-05-22T03:32:49.735Z,87.20
2023-05-22T03:35:19.611Z,87.10
2023-05-22T03:37:47.094Z,87.20
2023-05-22T03:40:15.183Z,87.20
2023-05-22T03:42:42.303Z,87.90
2023-05-22T03:45:09.798Z,88.10
2023-05-22T03:47:36.948Z,87.90
2023-05-22T03:50:04.356Z,87.80
2023-05-22T03:52:31.529Z,87.50
2023-05-22T03:54:58.914Z,87.50
2023-05-22T03:57:26.088Z,87.20
2023-05-22T03:59:53.233Z,87.60
2023-05-22T04:02:21.110Z,87.10
2023-05-22T04:04:48.449Z,86.90
2023-05-22T04:07:18.309Z,87.10
2023-05-22T04:09:45.534Z,87.10
2023-05-22T04:12:12.646Z,87.00
2023-05-22T04:14:39.742Z,87.20
2023-05-22T04:17:06.890Z,87.00
2023-05-22T04:19:34.074Z,87.20
2023-05-22T04:22:01.255Z,87.20
2023-05-22T04:24:28.350Z,86.90
2023-05-22T04:26:56.073Z,86.70
2023-05-22T04:29:24.214Z,86.80
2023-05-22T04:31:54.234Z,86.80
2023-05-22T04:34:21.794Z,87.00
2023-05-22T04:36:49.157Z,86.90
2023-05-22T04:39:16.475Z,86.70
2023-05-22T04:41:44.320Z,86.80
2023-05-22T04:44:11.442Z,86.90
2023-05-22T04:46:38.657Z,86.80
2023-05-22T04:49:05.957Z,86.60
2023-05-22T04:51:36.541Z,86.60
2023-05-22T04:54:03.820Z,86.50
2023-05-22T04:56:36.200Z,86.70
2023-05-22T04:59:05.409Z,86.70
2023-05-22T05:01:33.672Z,86.70
2023-05-22T05:04:02.140Z,86.70
2023-05-22T05:06:29.338Z,86.80
2023-05-22T05:08:56.448Z,87.80
2023-05-22T05:11:23.560Z,88.20
2023-05-22T05:13:50.695Z,88.10
2023-05-22T05:16:18.482Z,88.00
2023-05-22T05:18:45.745Z,88.00
2023-05-22T05:21:12.867Z,87.90
2023-05-22T05:23:39.968Z,88.40
2023-05-22T05:26:07.206Z,88.00
2023-05-22T05:28:34.315Z,87.80
2023-05-22T05:31:01.689Z,88.00
2023-05-22T05:33:28.953Z,88.00
2023-05-22T05:35:56.083Z,88.00
2023-05-22T05:38:23.255Z,87.90
2023-05-22T05:40:51.514Z,87.80
2023-05-22T05:43:19.115Z,87.70
2023-05-22T05:45:46.308Z,87.60
2023-05-22T05:48:13.481Z,87.50
2023-05-22T05:50:41.385Z,87.60
2023-05-22T05:53:08.880Z,87.50
2023-05-22T05:55:36.010Z,87.60
2023-05-22T05:58:03.108Z,87.90
2023-05-22T06:00:30.243Z,87.70
2023-05-22T06:02:57.460Z,87.70
2023-05-22T06:05:24.754Z,87.70
2023-05-22T06:07:52.288Z,87.60
2023-05-22T06:10:19.442Z,87.70
2023-05-22T06:12:46.539Z,87.70
2023-05-22T06:15:13.713Z,87.60
2023-05-22T06:17:41.777Z,87.50
2023-05-22T06:20:09.300Z,87.40
2023-05-22T06:22:37.395Z,87.30
2023-05-22T06:25:05.363Z,87.20
2023-05-22T06:27:32.495Z,87.60
2023-05-22T06:30:00.361Z,87.70
2023-05-22T06:32:27.652Z,87.70
2023-05-22T06:34:54.802Z,87.80
2023-05-22T06:37:21.909Z,87.90
2023-05-22T06:39:49.015Z,88.00
2023-05-22T06:42:16.105Z,88.00
2023-05-22T06:44:43.470Z,88.40
2023-05-22T06:47:11.226Z,88.30
2023-05-22T06:49:38.351Z,88.30
2023-05-22T06:52:07.341Z,89.30
2023-05-22T06:54:34.453Z,89.40
2023-05-22T06:57:03.671Z,89.60
2023-05-22T06:59:31.134Z,89.60
2023-05-22T07:01:58.255Z,89.70
2023-05-22T07:04:25.470Z,90.00
2023-05-22T07:06:52.892Z,89.90
2023-05-22T07:09:20.390Z,89.80
2023-05-22T07:11:47.482Z,90.00
2023-05-22T07:14:14.791Z,90.10
2023-05-22T07:16:42.229Z,90.20
2023-05-22T07:19:10.850Z,90.40
2023-05-22T07:21:38.132Z,90.50
2023-05-22T07:24:08.544Z,90.40
2023-05-22T07:26:36.581Z,90.60
2023-05-22T07:29:04.252Z,90.50
2023-05-22T07:31:33.567Z,90.90
2023-05-22T07:34:00.917Z,90.60
2023-05-22T07:36:28.006Z,90.70
2023-05-22T07:38:55.114Z,90.80
2023-05-22T07:41:22.630Z,90.70
2023-05-22T07:43:50.267Z,90.80
2023-05-22T07:46:17.598Z,90.80
2023-05-22T07:48:44.742Z,90.90
2023-05-22T07:51:13.615Z,91.00
2023-05-22T07:53:40.949Z,91.00
2023-05-22T07:56:08.128Z,91.00
2023-05-22T07:58:35.280Z,91.00
2023-05-22T08:01:02.730Z,91.00
2023-05-22T08:03:30.089Z,91.10
2023-05-22T08:05:57.275Z,91.20
2023-05-22T08:08:24.396Z,91.20
2023-05-22T08:11:03.119Z,91.30
2023-05-22T08:13:31.210Z,91.30
2023-05-22T08:16:00.162Z,91.70
2023-05-22T08:18:29.171Z,91.30
2023-05-22T08:20:56.751Z,91.30
2023-05-22T08:23:23.884Z,91.20
2023-05-22T08:25:51.095Z,91.10
2023-05-22T08:28:18.264Z,91.10
2023-05-22T08:30:45.528Z,91.00
2023-05-22T08:33:12.839Z,91.10
2023-05-22T08:35:40.039Z,91.10
2023-05-22T08:38:07.287Z,91.10
2023-05-22T08:40:38.744Z,91.50
2023-05-22T08:43:06.676Z,91.30
2023-05-22T08:45:34.606Z,91.30
2023-05-22T08:48:05.820Z,91.80
2023-05-22T08:50:36.828Z,91.90
2023-05-22T08:53:07.197Z,91.80
2023-05-22T08:55:34.827Z,91.90
2023-05-22T08:58:02.697Z,91.80
2023-05-22T09:00:30.225Z,91.90
2023-05-22T09:02:58.294Z,90.70
2023-05-22T09:05:26.699Z,89.60
2023-05-22T09:08:02.618Z,87.40
2023-05-22T09:10:35.926Z,86.60
2023-05-22T09:13:09.214Z,85.20
2023-05-22T09:15:37.187Z,84.40
2023-05-22T09:18:05.776Z,85.30
2023-05-22T09:20:38.442Z,85.50
2023-05-22T09:23:22.025Z,86.40
2023-05-22T09:25:49.235Z,86.90
2023-05-22T09:28:16.466Z,87.70
2023-05-22T09:30:47.913Z,87.60
2023-05-22T09:33:17.050Z,87.60
2023-05-22T09:35:45.781Z,88.00
2023-05-22T09:38:13.323Z,87.90
2023-05-22T09:40:41.585Z,87.40
2023-05-22T09:43:12.729Z,88.10
2023-05-22T09:45:39.883Z,87.10
2023-05-22T09:48:08.749Z,86.70
2023-05-22T09:50:37.004Z,84.40
2023-05-22T09:53:04.949Z,84.90
2023-05-22T09:55:33.624Z,85.80
2023-05-22T09:58:04.267Z,82.80
2023-05-22T10:00:34.570Z,84.60
2023-05-22T10:03:12.145Z,88.00
2023-05-22T10:05:44.953Z,87.30
2023-05-22T10:08:21.683Z,89.90
2023-05-22T10:10:52.784Z,90.00
2023-05-22T10:13:20.894Z,90.30
2023-05-22T10:15:49.329Z,90.40
2023-05-22T10:18:17.357Z,90.50
2023-05-22T10:20:47.068Z,90.60
2023-05-22T10:23:16.299Z,90.70
2023-05-22T10:25:44.422Z,90.80
2023-05-22T10:28:14.812Z,90.80
2023-05-22T10:30:51.151Z,90.80
2023-05-22T10:33:23.761Z,90.90
2023-05-22T10:36:19.584Z,90.90
2023-05-22T10:39:24.320Z,91.00
2023-05-22T10:41:51.562Z,91.00
2023-05-22T10:44:18.781Z,91.10
2023-05-22T10:46:52.713Z,91.10
2023-05-22T10:49:23.901Z,91.10
2023-05-22T10:51:56.875Z,91.20
2023-05-22T10:54:41.001Z,91.20
2023-05-22T10:57:16.107Z,91.10
2023-05-22T10:59:43.967Z,91.10
2023-05-22T11:02:25.478Z,91.20
2023-05-22T11:04:52.986Z,91.20
2023-05-22T11:07:20.553Z,91.20
2023-05-22T11:09:48.580Z,91.40
2023-05-22T11:12:28.307Z,91.80
2023-05-22T11:15:08.284Z,91.90
2023-05-22T11:17:45.014Z,91.60
2023-05-22T11:20:22.851Z,91.60
2023-05-22T11:22:55.616Z,91.50
2023-05-22T11:25:24.230Z,91.50
2023-05-22T11:27:51.377Z,91.50
2023-05-22T11:30:18.914Z,91.50
2023-05-22T11:32:48.165Z,91.40
2023-05-22T11:35:17.416Z,91.40
2023-05-22T11:37:45.069Z,91.40
2023-05-22T11:40:15.714Z,91.50
2023-05-22T11:42:43.021Z,91.40
2023-05-22T11:45:10.740Z,91.30
2023-05-22T11:47:38.392Z,91.50
2023-05-22T11:50:09.033Z,91.40
2023-05-22T11:52:37.840Z,91.30
2023-05-22T11:55:05.911Z,91.30
2023-05-22T11:57:34.200Z,91.20
2023-05-22T12:00:02.103Z,91.20
2023-05-22T12:02:30.248Z,91.20
2023-05-22T12:04:58.331Z,91.00
2023-05-22T12:07:27.499Z,91.10
2023-05-22T12:09:58.124Z,91.40
2023-05-22T12:12:25.894Z,91.30
2023-05-22T12:14:53.313Z,91.30
2023-05-22T12:17:20.459Z,91.40
2023-05-22T12:19:47.576Z,91.30
2023-05-22T12:22:14.824Z,91.20
2023-05-22T12:24:46.046Z,91.30
2023-05-22T12:27:14.352Z,91.70
2023-05-22T12:29:42.927Z,91.60
2023-05-22T12:32:11.828Z,91.50
2023-05-22T12:34:46.653Z,91.40
2023-05-22T12:37:33.670Z,91.50
2023-05-22T12:40:03.474Z,91.40
2023-05-22T12:42:30.699Z,91.40
2023-05-22T12:45:00.916Z,91.80
2023-05-22T12:47:28.181Z,91.60
2023-05-22T12:49:55.337Z,91.50
2023-05-22T12:52:22.454Z,91.50
2023-05-22T12:54:50.750Z,91.50
2023-05-22T12:57:17.872Z,91.50
2023-05-22T12:59:45.198Z,91.90
2023-05-22T13:02:12.330Z,92.20
2023-05-22T13:04:39.467Z,92.10
2023-05-22T13:07:06.604Z,91.70
2023-05-22T13:09:33.827Z,91.70
2023-05-22T13:12:01.129Z,91.70
2023-05-22T13:14:28.278Z,91.70
2023-05-22T13:16:55.467Z,91.60
2023-05-22T13:19:22.688Z,91.80
2023-05-22T13:21:49.848Z,91.80
2023-05-22T13:24:17.052Z,92.30
2023-05-22T13:26:44.227Z,92.90
2023-05-22T13:29:11.389Z,93.00
2023-05-22T13:31:38.656Z,93.00
2023-05-22T13:34:05.907Z,93.10
2023-05-22T13:36:33.998Z,93.10
2023-05-22T13:39:01.111Z,93.10
2023-05-22T13:41:28.447Z,93.10
2023-05-22T13:43:55.579Z,93.30
2023-05-22T13:46:22.887Z,93.50
2023-05-22T13:48:50.072Z,92.90
2023-05-22T13:51:17.265Z,92.90
2023-05-22T13:53:44.557Z,92.70
2023-05-22T13:56:11.648Z,92.50
2023-05-22T13:58:38.799Z,92.90
2023-05-22T14:01:06.029Z,92.90
2023-05-22T14:03:33.413Z,92.10
2023-05-22T14:06:01.019Z,91.70
2023-05-22T14:08:28.116Z,91.50
2023-05-22T14:10:55.348Z,91.30
2023-05-22T14:13:22.448Z,91.40
2023-05-22T14:15:49.723Z,91.20
2023-05-22T14:18:16.974Z,90.90
2023-05-22T14:20:45.958Z,90.60
2023-05-22T14:23:14.066Z,90.80
2023-05-22T14:25:42.938Z,90.60
2023-05-22T14:28:11.157Z,90.90
2023-05-22T14:30:39.016Z,90.60
2023-05-22T14:33:07.181Z,90.00
2023-05-22T14:35:34.521Z,89.80
2023-05-22T14:38:01.798Z,89.70
2023-05-22T14:40:29.082Z,90.50
2023-05-22T14:42:56.470Z,90.90
2023-05-22T14:45:23.781Z,91.00
2023-05-22T14:47:51.209Z,90.70
2023-05-22T14:50:22.539Z,90.90
2023-05-22T14:52:50.020Z,91.00
2023-05-22T14:55:17.890Z,90.90
2023-05-22T14:57:45.086Z,91.00
2023-05-22T15:00:13.131Z,91.80
2023-05-22T15:02:40.941Z,92.00
2023-05-22T15:05:08.947Z,91.80
2023-05-22T15:07:44.104Z,91.90
2023-05-22T15:10:12.799Z,92.10
2023-05-22T15:12:39.991Z,92.20
2023-05-22T15:15:07.689Z,92.20
2023-05-22T15:17:34.819Z,92.50
2023-05-22T15:20:01.964Z,92.90
2023-05-22T15:22:29.095Z,92.80
2023-05-22T15:25:11.781Z,92.90
2023-05-22T15:27:39.678Z,92.80
2023-05-22T15:30:09.554Z,92.50
2023-05-22T15:32:37.744Z,92.40
2023-05-22T15:35:06.297Z,92.50
2023-05-22T15:37:33.717Z,92.70
2023-05-22T15:40:01.838Z,92.50
2023-05-22T15:42:29.589Z,92.60
2023-05-22T15:44:58.877Z,92.60
2023-05-22T15:47:26.121Z,92.50
2023-05-22T15:49:53.366Z,92.50
2023-05-22T15:52:23.184Z,92.50
2023-05-22T15:54:50.452Z,92.50
2023-05-22T15:57:17.656Z,92.60
2023-05-22T15:59:47.032Z,92.70
2023-05-22T16:02:14.365Z,92.80
2023-05-22T16:04:41.589Z,92.90
2023-05-22T16:07:08.713Z,93.10
2023-05-22T16:09:36.323Z,92.90
2023-05-22T16:12:04.149Z,92.90
2023-05-22T16:14:31.880Z,93.00
2023-05-22T16:16:59.007Z,92.80
2023-05-22T16:19:28.265Z,92.90
2023-05-22T16:21:55.612Z,92.70
2023-05-22T16:24:22.755Z,92.80
2023-05-22T16:26:49.859Z,92.60
2023-05-22T16:29:20.488Z,92.50
2023-05-22T16:31:47.764Z,92.70
2023-05-22T16:34:15.276Z,92.80
2023-05-22T16:36:42.395Z,92.70
2023-05-22T16:39:09.829Z,92.70
2023-05-22T16:41:37.483Z,92.80
2023-05-22T16:44:04.637Z,92.70
2023-05-22T16:46:31.853Z,92.60
2023-05-22T16:48:59.037Z,92.80
2023-05-22T16:51:26.181Z,93.10
2023-05-22T16:53:53.268Z,93.30
2023-05-22T16:56:21.027Z,93.30
2023-05-22T16:58:48.286Z,93.20
2023-05-22T17:01:15.866Z,93.20
2023-05-22T17:03:43.254Z,93.10
2023-05-22T17:06:10.471Z,92.90
2023-05-22T17:08:37.673Z,92.80
2023-05-22T17:11:04.809Z,92.80
2023-05-22T17:13:31.975Z,92.80
2023-05-22T17:15:59.109Z,92.60
2023-05-22T17:18:26.306Z,92.40
2023-05-22T17:20:56.108Z,92.50
2023-05-22T17:23:23.675Z,92.50
2023-05-22T17:25:51.225Z,92.80
2023-05-22T17:28:18.533Z,93.00
2023-05-22T17:30:46.189Z,92.90
2023-05-22T17:33:13.900Z,92.90
2023-05-22T17:35:41.714Z,93.00
2023-05-22T17:38:09.080Z,93.10
2023-05-22T17:40:45.063Z,93.30
2023-05-22T17:43:13.882Z,93.30
2023-05-22T17:45:41.725Z,93.30
2023-05-22T17:48:09.196Z,93.30
2023-05-22T17:50:36.401Z,93.00
2023-05-22T17:53:03.596Z,93.30
2023-05-22T17:55:30.744Z,93.40
2023-05-22T17:57:58.711Z,93.60
2023-05-22T18:00:25.884Z,93.80
2023-05-22T18:02:53.163Z,93.80
2023-05-22T18:05:20.395Z,93.80
2023-05-22T18:07:47.499Z,93.80
2023-05-22T18:10:14.757Z,93.80
2023-05-22T18:12:41.856Z,93.90
2023-05-22T18:15:10.648Z,94.10
2023-05-22T18:17:38.342Z,94.10
2023-05-22T18:20:08.041Z,94.30
2023-05-22T18:22:38.308Z,94.30
2023-05-22T18:25:06.717Z,94.40
2023-05-22T18:27:34.467Z,94.60
2023-05-22T18:30:02.273Z,94.60
2023-05-22T18:32:29.656Z,94.70
2023-05-22T18:34:58.468Z,94.90
2023-05-22T18:37:26.322Z,95.00
2023-05-22T18:39:53.435Z,95.10
2023-05-22T18:42:20.742Z,95.20
2023-05-22T18:44:49.103Z,95.50
2023-05-22T18:47:16.959Z,95.60
2023-05-22T18:49:44.259Z,95.60
2023-05-22T18:52:11.416Z,95.70
2023-05-22T18:54:38.540Z,95.60
2023-05-22T18:57:05.811Z,95.70
2023-05-22T18:59:32.918Z,95.70
2023-05-22T19:02:00.041Z,95.70
2023-05-22T19:04:27.229Z,95.60
2023-05-22T19:06:54.390Z,95.50
2023-05-22T19:09:22.073Z,95.50
2023-05-22T19:11:49.254Z,95.50
2023-05-22T19:14:16.361Z,95.50
2023-05-22T19:16:44.171Z,95.40
2023-05-22T19:19:11.626Z,95.40
2023-05-22T19:21:39.020Z,95.40
2023-05-22T19:24:06.794Z,95.40
2023-05-22T19:26:34.013Z,95.60
2023-05-22T19:29:01.140Z,95.40
2023-05-22T19:31:29.329Z,95.50
2023-05-22T19:33:56.580Z,95.30
2023-05-22T19:36:23.712Z,95.30
2023-05-22T19:38:53.213Z,95.30
2023-05-22T19:41:22.716Z,95.20
2023-05-22T19:43:51.640Z,95.10
2023-05-22T19:46:19.017Z,95.10
2023-05-22T19:48:46.193Z,95.10
2023-05-22T19:51:13.349Z,95.10
2023-05-22T19:53:41.612Z,95.00
2023-05-22T19:56:08.729Z,94.90
2023-05-22T19:58:35.870Z,94.90
2023-05-22T20:01:02.960Z,94.80
2023-05-22T20:03:30.163Z,94.80
2023-05-22T20:05:57.358Z,94.90
2023-05-22T20:08:25.333Z,94.80
2023-05-22T20:10:52.869Z,94.90
2023-05-22T20:13:20.000Z,95.00
2023-05-22T20:15:47.640Z,95.30
2023-05-22T20:18:14.997Z,94.90
2023-05-22T20:20:42.143Z,94.90
2023-05-22T20:23:09.347Z,95.00
2023-05-22T20:25:37.523Z,94.70
2023-05-22T20:28:05.006Z,94.50
2023-05-22T20:30:32.573Z,94.30
2023-05-22T20:32:59.757Z,94.20
2023-05-22T20:35:27.035Z,94.10
2023-05-22T20:37:54.156Z,94.00
2023-05-22T20:40:21.652Z,94.00
2023-05-22T20:42:48.797Z,93.90
2023-05-22T20:45:16.457Z,93.90
2023-05-22T20:47:43.906Z,94.30
2023-05-22T20:50:11.568Z,94.40
2023-05-22T20:52:38.668Z,94.30
2023-05-22T20:55:06.710Z,94.40
2023-05-22T20:57:34.527Z,94.20
2023-05-22T21:00:01.824Z,94.10
2023-05-22T21:02:28.944Z,94.00
2023-05-22T21:04:56.153Z,93.90
2023-05-22T21:07:23.287Z,93.80
2023-05-22T21:09:50.579Z,93.70
2023-05-22T21:12:17.671Z,93.50
2023-05-22T21:14:44.825Z,93.50
2023-05-22T21:17:11.994Z,93.30
2023-05-22T21:19:39.260Z,93.70
2023-05-22T21:22:06.433Z,93.30
2023-05-22T21:24:33.606Z,93.30
2023-05-22T21:27:00.704Z,93.30
2023-05-22T21:29:27.843Z,93.30
2023-05-22T21:31:54.984Z,93.20
2023-05-22T21:34:22.254Z,93.10
2023-05-22T21:36:50.375Z,93.00
2023-05-22T21:39:17.515Z,92.90
2023-05-22T21:41:44.668Z,92.90
2023-05-22T21:44:11.862Z,92.80
2023-05-22T21:46:39.033Z,92.70
2023-05-22T21:49:06.386Z,92.70
2023-05-22T21:51:33.680Z,92.60
2023-05-22T21:54:00.800Z,92.60
2023-05-22T21:56:27.952Z,92.60
2023-05-22T21:58:55.101Z,92.50
2023-05-22T22:01:23.084Z,92.50
2023-05-22T22:03:50.272Z,92.40
2023-05-22T22:06:17.491Z,92.30
2023-05-22T22:08:44.594Z,92.20
2023-05-22T22:11:11.727Z,92.10
2023-05-22T22:13:38.857Z,92.00
2023-05-22T22:16:06.104Z,92.00
2023-05-22T22:18:33.765Z,92.10
2023-05-22T22:21:02.212Z,92.20
2023-05-22T22:23:29.631Z,92.40
2023-05-22T22:25:56.834Z,92.40
2023-05-22T22:28:23.938Z,92.20
2023-05-22T22:30:54.668Z,92.10
2023-05-22T22:33:22.655Z,92.10
2023-05-22T22:35:49.799Z,92.00
2023-05-22T22:38:17.157Z,92.00
2023-05-22T22:40:44.362Z,91.80
2023-05-22T22:43:11.663Z,91.90
2023-05-22T22:45:40.103Z,91.90
2023-05-22T22:48:07.680Z,91.80
2023-05-22T22:50:34.844Z,91.60
2023-05-22T22:53:01.984Z,91.40
2023-05-22T22:55:29.402Z,91.10
2023-05-22T22:57:56.835Z,91.30
2023-05-22T23:00:24.576Z,91.20
2023-05-22T23:02:51.730Z,91.20
2023-05-22T23:05:20.450Z,91.20
2023-05-22T23:07:48.285Z,91.30
2023-05-22T23:10:16.042Z,91.30
2023-05-22T23:12:43.136Z,91.30
2023-05-22T23:15:11.267Z,91.30
2023-05-22T23:17:38.716Z,91.20
2023-05-22T23:20:08.633Z,91.30
2023-05-22T23:22:35.781Z,91.30
2023-05-22T23:25:03.093Z,91.30
2023-05-22T23:27:30.437Z,91.30
2023-05-22T23:29:58.132Z,91.30
2023-05-22T23:32:25.343Z,91.30
2023-05-22T23:34:52.471Z,91.40
2023-05-22T23:37:19.612Z,91.40
2023-05-22T23:39:46.712Z,91.60
2023-05-22T23:42:13.794Z,91.70
2023-05-22T23:44:41.004Z,91.80
2023-05-22T23:47:08.321Z,91.80
2023-05-22T23:49:35.483Z,91.80
2023-05-22T23:52:02.705Z,91.70
2023-05-22T23:54:29.844Z,91.70
2023-05-22T23:56:56.932Z,91.60
2023-05-22T23:59:24.042Z,91.40
